createdAt,value
2022-10-23T00:01:40.402Z,9.56
2022-10-23T00:04:17.268Z,9.40
2022-10-23T00:06:43.804Z,9.56
2022-10-23T00:09:12.518Z,9.50
2022-10-23T00:11:39.097Z,9.60
2022-10-23T00:14:07.319Z,9.55
2022-10-23T00:16:33.998Z,9.54
2022-10-23T00:19:00.317Z,9.53
2022-10-23T00:21:27.116Z,9.56
2022-10-23T00:23:53.490Z,9.57
2022-10-23T00:26:19.886Z,9.50
2022-10-23T00:28:50.373Z,9.57
2022-10-23T00:31:17.301Z,9.55
2022-10-23T00:33:43.715Z,9.45
2022-10-23T00:36:11.554Z,9.42
2022-10-23T00:38:38.222Z,9.51
2022-10-23T00:41:05.466Z,9.41
2022-10-23T00:43:31.964Z,9.40
2022-10-23T00:45:58.684Z,9.44
2022-10-23T00:48:25.897Z,9.61
2022-10-23T00:50:52.400Z,9.48
2022-10-23T00:53:19.639Z,9.45
2022-10-23T00:55:47.279Z,9.50
2022-10-23T00:58:14.683Z,9.66
2022-10-23T01:00:44.008Z,9.74
2022-10-23T01:03:10.380Z,9.57
2022-10-23T01:09:17.543Z,9.70
2022-10-23T01:11:43.952Z,9.61
2022-10-23T01:14:13.319Z,9.69
2022-10-23T01:16:48.235Z,9.62
2022-10-23T01:19:25.257Z,9.71
2022-10-23T01:22:11.857Z,9.77
2022-10-23T01:24:51.047Z,9.84
2022-10-23T01:27:17.519Z,9.81
2022-10-23T01:29:46.803Z,9.90
2022-10-23T01:32:15.810Z,9.98
2022-10-23T01:34:51.776Z,9.96
2022-10-23T01:37:29.759Z,10.04
2022-10-23T01:40:00.754Z,10.05
2022-10-23T01:42:33.957Z,10.08
2022-10-23T01:45:06.823Z,10.06
2022-10-23T01:47:35.106Z,10.13
2022-10-23T01:50:02.512Z,10.10
2022-10-23T01:52:28.957Z,10.13
2022-10-23T01:54:58.044Z,10.20
2022-10-23T01:57:26.145Z,10.23
2022-10-23T02:00:05.727Z,10.36
2022-10-23T02:02:33.897Z,10.37
2022-10-23T02:05:00.346Z,10.46
2022-10-23T02:07:26.970Z,10.55
2022-10-23T02:09:53.478Z,10.59
2022-10-23T02:12:28.718Z,10.54
2022-10-23T02:14:58.733Z,10.53
2022-10-23T02:17:45.429Z,10.55
2022-10-23T02:20:20.957Z,10.55
2022-10-23T02:22:56.764Z,10.58
2022-10-23T02:25:27.875Z,10.69
2022-10-23T02:27:56.856Z,10.76
2022-10-23T02:30:23.174Z,10.82
2022-10-23T02:32:51.543Z,10.72
2022-10-23T02:35:19.469Z,10.73
2022-10-23T02:37:55.399Z,10.79
2022-10-23T02:40:23.900Z,10.77
2022-10-23T02:42:57.580Z,10.78
2022-10-23T02:45:27.062Z,10.88
2022-10-23T02:47:53.538Z,10.95
2022-10-23T02:50:23.096Z,10.99
2022-10-23T02:52:58.309Z,11.08
2022-10-23T02:55:33.791Z,11.09
2022-10-23T02:58:11.571Z,10.94
2022-10-23T03:00:39.710Z,10.98
2022-10-23T03:03:08.857Z,11.11
2022-10-23T03:05:38.067Z,11.13
2022-10-23T03:08:05.999Z,11.12
2022-10-23T03:10:32.327Z,11.20
2022-10-23T03:12:58.650Z,11.12
2022-10-23T03:15:25.072Z,11.21
2022-10-23T03:17:51.501Z,11.15
2022-10-23T03:20:17.980Z,11.24
2022-10-23T03:22:44.825Z,11.26
2022-10-23T03:25:11.514Z,11.31
2022-10-23T03:27:37.824Z,11.27
2022-10-23T03:30:04.704Z,11.37
2022-10-23T03:32:31.160Z,11.29
2022-10-23T03:34:57.556Z,11.33
2022-10-23T03:37:24.111Z,11.37
2022-10-23T03:39:50.900Z,11.41
2022-10-23T03:42:17.689Z,11.38
2022-10-23T03:44:44.135Z,11.45
2022-10-23T03:47:11.908Z,11.49
2022-10-23T03:49:39.025Z,11.39
2022-10-23T03:52:05.578Z,11.39
2022-10-23T03:54:32.293Z,11.21
2022-10-23T03:56:58.750Z,11.36
2022-10-23T03:59:25.585Z,11.41
2022-10-23T04:01:52.096Z,11.39
2022-10-23T04:04:18.699Z,11.44
2022-10-23T04:06:45.142Z,11.42
2022-10-23T04:11:39.090Z,11.46
2022-10-23T04:14:05.443Z,11.51
2022-10-23T04:16:31.802Z,11.40
2022-10-23T04:18:58.144Z,11.50
2022-10-23T04:21:24.578Z,11.44
2022-10-23T04:23:51.007Z,11.42
2022-10-23T04:26:17.334Z,11.50
2022-10-23T04:28:43.742Z,11.52
2022-10-23T04:31:10.170Z,11.54
2022-10-23T04:33:36.937Z,11.54
2022-10-23T04:36:03.439Z,11.67
2022-10-23T04:38:29.822Z,11.69
2022-10-23T04:40:58.223Z,11.65
2022-10-23T04:43:24.625Z,11.67
2022-10-23T04:45:50.973Z,11.85
2022-10-23T04:48:17.400Z,11.78
2022-10-23T04:50:43.726Z,11.76
2022-10-23T04:53:10.032Z,11.71
2022-10-23T04:55:36.482Z,11.74
2022-10-23T04:58:02.802Z,11.62
2022-10-23T05:00:29.294Z,11.74
2022-10-23T05:02:55.987Z,11.78
2022-10-23T05:05:22.326Z,11.78
2022-10-23T05:07:48.752Z,11.81
2022-10-23T05:10:15.097Z,11.76
2022-10-23T05:12:41.431Z,11.76
2022-10-23T05:15:07.902Z,11.83
2022-10-23T05:17:35.403Z,11.85
2022-10-23T05:20:03.739Z,11.81
2022-10-23T05:22:32.713Z,11.80
2022-10-23T05:25:01.880Z,11.78
2022-10-23T05:27:28.213Z,11.76
2022-10-23T05:29:54.584Z,11.77
2022-10-23T05:34:53.236Z,11.72
2022-10-23T05:37:19.670Z,11.79
2022-10-23T05:39:46.117Z,11.76
2022-10-23T05:42:12.523Z,11.75
2022-10-23T05:44:38.965Z,11.68
2022-10-23T05:47:05.274Z,11.82
2022-10-23T05:49:31.651Z,11.79
2022-10-23T05:51:57.969Z,11.77
2022-10-23T05:54:24.329Z,11.88
2022-10-23T05:56:51.805Z,11.75
2022-10-23T05:59:20.512Z,11.67
2022-10-23T06:01:49.429Z,11.69
2022-10-23T06:04:15.815Z,11.76
2022-10-23T06:06:42.121Z,11.74
2022-10-23T06:09:09.501Z,11.84
2022-10-23T06:11:35.873Z,11.91
2022-10-23T06:14:02.266Z,11.73
2022-10-23T06:16:28.669Z,11.75
2022-10-23T06:18:55.216Z,12.06
2022-10-23T06:21:21.781Z,11.83
2022-10-23T06:23:48.326Z,11.82
2022-10-23T06:26:15.552Z,12.24
2022-10-23T06:28:41.934Z,11.92
2022-10-23T06:31:09.447Z,12.16
2022-10-23T06:33:35.819Z,12.43
2022-10-23T06:36:03.604Z,12.77
2022-10-23T06:38:30.083Z,13.16
2022-10-23T06:40:56.646Z,13.16
2022-10-23T06:43:23.081Z,12.98
2022-10-23T06:45:49.532Z,13.49
2022-10-23T06:48:15.946Z,13.54
2022-10-23T06:50:42.362Z,13.33
2022-10-23T06:53:09.736Z,13.36
2022-10-23T06:58:04.592Z,13.52
2022-10-23T07:00:31.092Z,13.67
2022-10-23T07:02:57.753Z,13.62
2022-10-23T07:05:24.092Z,14.08
2022-10-23T07:07:51.650Z,14.16
2022-10-23T07:10:18.107Z,13.77
2022-10-23T07:12:45.318Z,13.67
2022-10-23T07:15:11.990Z,13.73
2022-10-23T07:17:38.516Z,13.86
2022-10-23T07:20:05.061Z,13.78
2022-10-23T07:22:31.552Z,13.73
2022-10-23T07:24:58.086Z,13.69
2022-10-23T07:27:24.527Z,13.80
2022-10-23T07:29:51.460Z,13.76
2022-10-23T07:32:17.900Z,13.52
2022-10-23T07:34:44.406Z,13.44
2022-10-23T07:37:10.788Z,13.35
2022-10-23T07:39:37.315Z,13.27
2022-10-23T07:42:03.949Z,13.36
2022-10-23T07:44:30.376Z,13.31
2022-10-23T07:46:57.008Z,13.28
2022-10-23T07:49:23.442Z,13.29
2022-10-23T07:51:51.457Z,13.30
2022-10-23T07:54:18.149Z,13.17
2022-10-23T07:56:44.826Z,13.32
2022-10-23T07:59:14.072Z,13.60
2022-10-23T08:01:42.535Z,13.73
2022-10-23T08:04:09.337Z,13.95
2022-10-23T08:06:36.039Z,13.97
2022-10-23T08:09:05.487Z,14.03
2022-10-23T08:11:35.503Z,14.04
2022-10-23T08:14:08.165Z,14.36
2022-10-23T08:16:35.812Z,14.54
2022-10-23T08:19:02.440Z,14.37
2022-10-23T08:21:29.461Z,14.63
2022-10-23T08:23:56.723Z,14.59
2022-10-23T08:26:24.603Z,14.48
2022-10-23T08:28:51.567Z,14.53
2022-10-23T08:31:18.837Z,15.17
2022-10-23T08:33:45.413Z,15.60
2022-10-23T08:36:17.789Z,16.07
2022-10-23T08:38:44.219Z,16.00
2022-10-23T08:41:32.344Z,16.30
2022-10-23T08:44:12.722Z,16.54
2022-10-23T08:46:41.958Z,16.85
2022-10-23T08:49:17.697Z,16.64
2022-10-23T08:51:49.193Z,16.65
2022-10-23T08:54:20.938Z,16.77
2022-10-23T08:56:49.790Z,16.39
2022-10-23T08:59:39.658Z,16.48
2022-10-23T09:02:06.217Z,16.42
2022-10-23T09:04:32.809Z,16.50
2022-10-23T09:09:54.367Z,17.06
2022-10-23T09:12:22.258Z,17.64
2022-10-23T09:15:07.463Z,17.44
2022-10-23T09:17:35.046Z,17.77
2022-10-23T09:20:19.286Z,18.32
2022-10-23T09:22:46.745Z,18.58
2022-10-23T09:25:18.313Z,18.60
2022-10-23T09:27:53.198Z,18.18
2022-10-23T09:30:48.700Z,18.49
2022-10-23T09:33:24.433Z,18.63
2022-10-23T09:36:01.838Z,19.09
2022-10-23T09:38:28.207Z,18.80
2022-10-23T09:40:54.792Z,18.98
2022-10-23T09:43:27.426Z,19.06
2022-10-23T09:46:01.396Z,18.33
2022-10-23T09:48:27.708Z,18.62
2022-10-23T09:50:58.671Z,19.07
2022-10-23T09:53:37.041Z,18.79
2022-10-23T09:56:07.764Z,18.52
2022-10-23T09:58:40.094Z,18.08
2022-10-23T10:01:06.624Z,18.33
2022-10-23T10:03:33.119Z,18.57
2022-10-23T10:06:04.698Z,18.91
2022-10-23T10:08:37.348Z,18.70
2022-10-23T10:11:22.837Z,18.35
2022-10-23T10:14:01.355Z,18.32
2022-10-23T10:16:34.163Z,17.80
2022-10-23T10:19:04.619Z,17.83
2022-10-23T10:21:43.800Z,18.00
2022-10-23T10:24:18.462Z,18.40
2022-10-23T10:27:06.124Z,18.46
2022-10-23T10:29:51.216Z,18.87
2022-10-23T10:32:32.222Z,19.27
2022-10-23T10:35:04.443Z,19.40
2022-10-23T10:37:49.713Z,19.34
2022-10-23T10:40:22.490Z,19.05
2022-10-23T10:43:06.330Z,18.74
2022-10-23T10:45:46.893Z,18.46
2022-10-23T10:48:19.425Z,18.59
2022-10-23T10:50:52.778Z,18.27
2022-10-23T10:53:23.566Z,18.63
2022-10-23T10:55:55.519Z,18.74
2022-10-23T10:58:26.143Z,18.38
2022-10-23T11:01:03.356Z,18.69
2022-10-23T11:03:51.906Z,18.67
2022-10-23T11:06:20.382Z,18.78
2022-10-23T11:08:57.375Z,18.63
2022-10-23T11:11:25.155Z,18.99
2022-10-23T11:13:53.164Z,19.07
2022-10-23T11:16:25.770Z,18.95
2022-10-23T11:19:14.155Z,18.95
2022-10-23T11:22:02.106Z,18.82
2022-10-23T11:24:49.449Z,18.93
2022-10-23T11:27:27.459Z,18.67
2022-10-23T11:30:12.523Z,18.69
2022-10-23T11:32:38.914Z,18.56
2022-10-23T11:35:10.154Z,19.02
2022-10-23T11:37:36.623Z,19.04
2022-10-23T11:40:18.135Z,19.26
2022-10-23T11:42:47.371Z,19.11
2022-10-23T11:45:25.801Z,19.12
2022-10-23T11:48:02.627Z,19.22
2022-10-23T11:50:33.567Z,19.32
2022-10-23T11:53:20.909Z,19.38
2022-10-23T11:56:05.569Z,19.30
2022-10-23T11:58:48.751Z,19.20
2022-10-23T12:01:33.842Z,18.81
2022-10-23T12:04:12.868Z,19.15
2022-10-23T12:06:41.543Z,19.17
2022-10-23T12:09:22.138Z,18.94
2022-10-23T12:12:24.185Z,19.23
2022-10-23T12:14:51.215Z,19.00
2022-10-23T12:17:37.897Z,18.93
2022-10-23T12:20:04.279Z,18.93
2022-10-23T12:22:37.367Z,18.95
2022-10-23T12:25:13.850Z,19.13
2022-10-23T12:27:43.549Z,19.03
2022-10-23T12:30:19.528Z,18.88
2022-10-23T12:33:09.153Z,18.77
2022-10-23T12:35:54.020Z,19.05
2022-10-23T12:38:23.266Z,19.09
2022-10-23T12:41:00.956Z,18.94
2022-10-23T12:43:30.281Z,18.97
2022-10-23T12:46:00.952Z,18.78
2022-10-23T12:48:27.593Z,19.35
2022-10-23T12:50:56.255Z,19.34
2022-10-23T12:53:23.366Z,19.32
2022-10-23T12:55:49.870Z,19.07
2022-10-23T12:58:23.700Z,19.18
2022-10-23T13:00:51.464Z,19.27
2022-10-23T13:03:20.200Z,19.23
2022-10-23T13:05:46.868Z,18.97
2022-10-23T13:08:14.389Z,18.88
2022-10-23T13:10:41.704Z,18.81
2022-10-23T13:13:08.618Z,19.07
2022-10-23T13:15:43.149Z,19.00
2022-10-23T13:18:10.506Z,18.82
2022-10-23T13:20:38.580Z,18.83
2022-10-23T13:23:11.077Z,19.00
2022-10-23T13:25:39.729Z,18.86
2022-10-23T13:28:13.327Z,18.78
2022-10-23T13:30:42.666Z,19.02
2022-10-23T13:33:23.000Z,18.94
2022-10-23T13:35:57.186Z,19.07
2022-10-23T13:38:31.072Z,19.19
2022-10-23T13:41:01.497Z,19.23
2022-10-23T13:43:30.641Z,18.95
2022-10-23T13:45:57.970Z,19.08
2022-10-23T13:48:24.605Z,19.24
2022-10-23T13:50:51.028Z,18.81
2022-10-23T13:53:17.677Z,18.74
2022-10-23T13:55:45.225Z,18.70
2022-10-23T13:58:11.596Z,18.70
2022-10-23T14:00:38.503Z,18.71
2022-10-23T14:03:04.866Z,18.57
2022-10-23T14:05:31.303Z,18.67
2022-10-23T14:07:57.706Z,18.45
2022-10-23T14:10:26.910Z,18.56
2022-10-23T14:12:55.016Z,18.44
2022-10-23T14:15:21.870Z,18.52
2022-10-23T14:17:48.315Z,18.54
2022-10-23T14:20:16.371Z,18.53
2022-10-23T14:22:44.955Z,18.58
2022-10-23T14:25:11.732Z,18.61
2022-10-23T14:27:38.069Z,18.70
2022-10-23T14:30:04.847Z,18.69
2022-10-23T14:32:31.498Z,18.58
2022-10-23T14:34:57.874Z,18.53
2022-10-23T14:37:24.288Z,18.46
2022-10-23T14:39:50.619Z,18.25
2022-10-23T14:42:17.377Z,18.33
2022-10-23T14:44:43.969Z,18.38
2022-10-23T14:47:10.370Z,18.42
2022-10-23T14:49:40.010Z,18.39
2022-10-23T14:52:06.832Z,18.40
2022-10-23T14:54:35.145Z,18.44
2022-10-23T14:57:01.651Z,18.42
2022-10-23T14:59:28.111Z,18.41
2022-10-23T15:04:21.144Z,18.13
2022-10-23T15:06:47.473Z,18.12
2022-10-23T15:09:15.883Z,18.06
2022-10-23T15:11:42.732Z,18.02
2022-10-23T15:14:09.349Z,17.99
2022-10-23T15:16:41.379Z,17.87
2022-10-23T15:19:13.630Z,17.68
2022-10-23T15:21:43.832Z,17.60
2022-10-23T15:24:10.236Z,17.53
2022-10-23T15:26:38.260Z,17.46
2022-10-23T15:29:05.385Z,17.33
2022-10-23T15:31:41.958Z,17.34
2022-10-23T15:34:27.229Z,17.27
2022-10-23T15:36:54.702Z,17.26
2022-10-23T15:39:22.496Z,17.28
2022-10-23T15:41:51.148Z,17.21
2022-10-23T15:44:18.545Z,17.13
2022-10-23T15:46:44.953Z,17.01
2022-10-23T15:49:11.665Z,16.87
2022-10-23T15:51:38.945Z,16.84
2022-10-23T15:54:06.243Z,16.73
2022-10-23T15:56:32.840Z,16.71
2022-10-23T15:59:01.619Z,16.65
2022-10-23T16:01:29.162Z,16.64
2022-10-23T16:03:56.883Z,16.55
2022-10-23T16:06:23.452Z,16.49
2022-10-23T16:08:49.836Z,16.36
2022-10-23T16:11:18.256Z,16.30
2022-10-23T16:13:47.799Z,16.13
2022-10-23T16:16:14.547Z,16.13
2022-10-23T16:18:40.993Z,16.08
2022-10-23T16:21:07.867Z,16.08
2022-10-23T16:23:34.487Z,15.97
2022-10-23T16:26:05.102Z,16.03
2022-10-23T16:28:31.580Z,15.83
2022-10-23T16:30:57.986Z,15.78
2022-10-23T16:33:24.371Z,15.59
2022-10-23T16:35:50.826Z,15.51
2022-10-23T16:38:17.311Z,15.57
2022-10-23T16:40:50.332Z,15.50
2022-10-23T16:43:16.637Z,15.51
2022-10-23T16:45:42.991Z,15.47
2022-10-23T16:48:09.439Z,15.47
2022-10-23T16:50:41.020Z,15.46
2022-10-23T16:53:07.751Z,15.36
2022-10-23T16:55:34.165Z,15.42
2022-10-23T16:58:00.635Z,15.31
2022-10-23T17:00:34.865Z,15.34
2022-10-23T17:03:04.698Z,15.34
2022-10-23T17:05:34.785Z,15.37
2022-10-23T17:08:01.188Z,15.33
2022-10-23T17:10:27.778Z,15.28
2022-10-23T17:12:54.106Z,15.30
2022-10-23T17:15:20.904Z,15.22
2022-10-23T17:17:48.358Z,15.13
2022-10-23T17:20:14.790Z,15.10
2022-10-23T17:22:41.159Z,14.91
2022-10-23T17:25:07.978Z,14.91
2022-10-23T17:27:34.312Z,14.92
2022-10-23T17:30:00.638Z,14.88
2022-10-23T17:32:27.060Z,14.92
2022-10-23T17:34:54.466Z,14.95
2022-10-23T17:37:20.882Z,14.92
2022-10-23T17:39:47.200Z,14.92
2022-10-23T17:42:13.632Z,14.91
2022-10-23T17:44:39.964Z,14.88
2022-10-23T17:47:06.271Z,14.95
2022-10-23T17:49:32.668Z,14.78
2022-10-23T17:51:59.099Z,14.73
2022-10-23T17:54:26.692Z,14.61
2022-10-23T17:56:53.034Z,14.63
2022-10-23T17:59:19.745Z,14.63
2022-10-23T18:01:48.075Z,14.51
2022-10-23T18:04:15.607Z,14.55
2022-10-23T18:06:47.368Z,14.47
2022-10-23T18:09:13.800Z,14.48
2022-10-23T18:11:45.253Z,14.38
2022-10-23T18:14:13.339Z,14.47
2022-10-23T18:16:40.458Z,14.45
2022-10-23T18:19:07.021Z,14.26
2022-10-23T18:21:33.403Z,14.34
2022-10-23T18:24:00.153Z,14.23
2022-10-23T18:26:28.103Z,14.25
2022-10-23T18:28:58.647Z,14.29
2022-10-23T18:31:27.119Z,14.21
2022-10-23T18:33:57.566Z,14.21
2022-10-23T18:36:26.690Z,13.96
2022-10-23T18:38:53.161Z,14.11
2022-10-23T18:41:19.868Z,14.06
2022-10-23T18:43:46.310Z,14.00
2022-10-23T18:46:13.061Z,14.08
2022-10-23T18:48:39.669Z,14.05
2022-10-23T18:51:15.601Z,13.86
2022-10-23T18:53:42.497Z,13.87
2022-10-23T18:56:08.890Z,13.91
2022-10-23T18:58:35.244Z,13.96
2022-10-23T19:01:02.528Z,13.86
2022-10-23T19:03:29.122Z,13.85
2022-10-23T19:05:56.608Z,13.87
2022-10-23T19:08:22.927Z,13.81
2022-10-23T19:10:50.197Z,13.91
2022-10-23T19:13:17.100Z,13.70
2022-10-23T19:15:43.653Z,13.83
2022-10-23T19:18:10.491Z,13.84
2022-10-23T19:20:41.405Z,13.88
2022-10-23T19:23:07.835Z,13.85
2022-10-23T19:25:34.931Z,13.83
2022-10-23T19:28:02.021Z,13.83
2022-10-23T19:30:28.553Z,13.93
2022-10-23T19:32:54.924Z,13.84
2022-10-23T19:35:21.563Z,13.84
2022-10-23T19:37:47.937Z,13.85
2022-10-23T19:40:14.628Z,13.81
2022-10-23T19:42:41.882Z,13.75
2022-10-23T19:45:12.347Z,13.76
2022-10-23T19:47:39.150Z,13.74
2022-10-23T19:50:06.712Z,13.80
2022-10-23T19:52:34.489Z,13.79
2022-10-23T19:55:01.357Z,13.79
2022-10-23T19:57:30.375Z,13.82
2022-10-23T19:59:56.768Z,13.78
2022-10-23T20:02:23.253Z,13.75
2022-10-23T20:04:50.932Z,13.84
2022-10-23T20:07:17.375Z,13.83
2022-10-23T20:09:43.778Z,13.84
2022-10-23T20:12:11.173Z,13.73
2022-10-23T20:14:37.499Z,13.78
2022-10-23T20:17:05.084Z,14.20
2022-10-23T20:19:31.445Z,14.20
2022-10-23T20:21:57.840Z,14.29
2022-10-23T20:24:24.146Z,14.52
2022-10-23T20:26:52.320Z,14.36
2022-10-23T20:29:18.949Z,14.39
2022-10-23T20:31:45.330Z,14.52
2022-10-23T20:34:12.291Z,14.48
2022-10-23T20:36:45.423Z,14.48
2022-10-23T20:39:15.587Z,14.49
2022-10-23T20:41:42.164Z,14.54
2022-10-23T20:44:10.731Z,14.57
2022-10-23T20:46:37.137Z,14.51
2022-10-23T20:49:03.811Z,14.48
2022-10-23T20:51:30.230Z,14.53
2022-10-23T20:53:56.540Z,14.48
2022-10-23T20:56:24.257Z,14.55
2022-10-23T20:58:50.713Z,14.61
2022-10-23T21:01:17.847Z,14.41
2022-10-23T21:03:49.213Z,14.49
2022-10-23T21:06:16.267Z,14.52
2022-10-23T21:08:42.574Z,14.74
2022-10-23T21:11:12.791Z,14.70
2022-10-23T21:13:40.080Z,14.48
2022-10-23T21:16:13.869Z,14.51
2022-10-23T21:18:45.970Z,14.42
2022-10-23T21:21:13.966Z,14.50
2022-10-23T21:23:40.981Z,14.54
2022-10-23T21:26:07.970Z,14.56
2022-10-23T21:28:34.821Z,14.58
2022-10-23T21:31:09.783Z,14.54
2022-10-23T21:33:36.820Z,14.52
2022-10-23T21:36:18.725Z,14.55
2022-10-23T21:38:45.825Z,14.53
2022-10-23T21:41:13.812Z,14.55
2022-10-23T21:43:40.128Z,14.52
2022-10-23T21:46:09.406Z,14.54
2022-10-23T21:48:35.754Z,14.53
2022-10-23T21:51:02.214Z,14.55
2022-10-23T21:53:28.946Z,14.57
2022-10-23T21:55:56.073Z,14.49
2022-10-23T21:58:22.446Z,14.49
2022-10-23T22:00:48.861Z,14.55
2022-10-23T22:03:15.175Z,14.60
2022-10-23T22:05:41.590Z,14.44
2022-10-23T22:08:07.920Z,14.49
2022-10-23T22:10:35.340Z,14.48
2022-10-23T22:13:01.664Z,14.42
2022-10-23T22:15:28.120Z,14.43
2022-10-23T22:17:54.506Z,14.37
2022-10-23T22:20:20.850Z,14.37
2022-10-23T22:22:47.166Z,14.36
2022-10-23T22:25:13.531Z,14.39
2022-10-23T22:27:41.036Z,14.43
2022-10-23T22:30:07.557Z,14.40
2022-10-23T22:32:34.856Z,14.18
2022-10-23T22:35:01.192Z,14.21
2022-10-23T22:37:27.506Z,14.24
2022-10-23T22:39:53.847Z,14.23
2022-10-23T22:42:20.342Z,14.35
2022-10-23T22:44:46.726Z,14.43
2022-10-23T22:47:13.147Z,14.39
2022-10-23T22:49:39.730Z,14.44
2022-10-23T22:52:06.124Z,14.39
2022-10-23T22:54:32.498Z,14.51
2022-10-23T22:56:58.962Z,14.51
2022-10-23T22:59:25.277Z,14.48
2022-10-23T23:01:52.794Z,14.43
2022-10-23T23:04:37.232Z,14.48
2022-10-23T23:07:04.524Z,14.47
2022-10-23T23:09:31.882Z,14.47
2022-10-23T23:11:58.470Z,14.49
2022-10-23T23:14:24.843Z,14.55
2022-10-23T23:16:51.846Z,14.51
2022-10-23T23:19:18.320Z,14.48
2022-10-23T23:21:44.696Z,14.65
2022-10-23T23:24:12.127Z,14.42
2022-10-23T23:26:38.687Z,14.49
2022-10-23T23:29:05.033Z,14.51
2022-10-23T23:31:31.479Z,14.43
2022-10-23T23:33:57.817Z,14.36
2022-10-23T23:36:25.310Z,14.52
2022-10-23T23:38:52.306Z,14.53
2022-10-23T23:41:20.061Z,14.44
2022-10-23T23:43:46.690Z,14.13
2022-10-23T23:46:13.388Z,14.14
2022-10-23T23:48:40.328Z,14.21
2022-10-23T23:51:06.651Z,14.35
2022-10-23T23:53:32.972Z,14.41
2022-10-23T23:55:59.565Z,14.43
2022-10-23T23:58:25.903Z,14.51
